sensor_id;sensor_type;location;lat;lon;timestamp;P1;durP1;ratioP1;P2;durP2;ratioP2
66425;SDS011;53237;46.158;14.604;2023-04-15T00:02:23;2.72;;;2.53;;
66425;SDS011;53237;46.158;14.604;2023-04-15T00:04:49;3.05;;;2.85;;
66425;SDS011;53237;46.158;14.604;2023-04-15T00:07:15;2.80;;;2.60;;
66425;SDS011;53237;46.158;14.604;2023-04-15T00:09:41;3.33;;;3.03;;
66425;SDS011;53237;46.158;14.604;2023-04-15T00:12:09;2.60;;;2.40;;
66425;SDS011;53237;46.158;14.604;2023-04-15T00:14:35;2.70;;;2.50;;
66425;SDS011;53237;46.158;14.604;2023-04-15T00:17:01;3.03;;;2.72;;
66425;SDS011;53237;46.158;14.604;2023-04-15T00:19:28;2.90;;;2.60;;
66425;SDS011;53237;46.158;14.604;2023-04-15T00:21:54;2.55;;;2.30;;
66425;SDS011;53237;46.158;14.604;2023-04-15T00:24:21;2.72;;;2.50;;
66425;SDS011;53237;46.158;14.604;2023-04-15T00:26:47;2.50;;;2.30;;
66425;SDS011;53237;46.158;14.604;2023-04-15T00:29:13;2.60;;;2.40;;
66425;SDS011;53237;46.158;14.604;2023-04-15T00:31:39;2.67;;;2.47;;
66425;SDS011;53237;46.158;14.604;2023-04-15T00:34:06;2.58;;;2.38;;
66425;SDS011;53237;46.158;14.604;2023-04-15T00:36:32;2.55;;;2.35;;
66425;SDS011;53237;46.158;14.604;2023-04-15T00:38:59;2.67;;;2.15;;
66425;SDS011;53237;46.158;14.604;2023-04-15T00:41:27;2.40;;;2.20;;
66425;SDS011;53237;46.158;14.604;2023-04-15T00:43:53;2.40;;;2.20;;
66425;SDS011;53237;46.158;14.604;2023-04-15T00:46:19;2.70;;;2.50;;
66425;SDS011;53237;46.158;14.604;2023-04-15T00:48:46;3.28;;;2.65;;
66425;SDS011;53237;46.158;14.604;2023-04-15T00:51:12;2.70;;;2.50;;
66425;SDS011;53237;46.158;14.604;2023-04-15T00:53:39;2.60;;;2.40;;
66425;SDS011;53237;46.158;14.604;2023-04-15T00:56:05;1.85;;;1.70;;
66425;SDS011;53237;46.158;14.604;2023-04-15T00:58:31;2.10;;;1.90;;
66425;SDS011;53237;46.158;14.604;2023-04-15T01:00:57;2.25;;;2.00;;
66425;SDS011;53237;46.158;14.604;2023-04-15T01:03:23;2.42;;;2.05;;
66425;SDS011;53237;46.158;14.604;2023-04-15T01:05:49;2.50;;;1.60;;
66425;SDS011;53237;46.158;14.604;2023-04-15T01:08:23;2.10;;;1.90;;
66425;SDS011;53237;46.158;14.604;2023-04-15T01:10:51;1.92;;;1.80;;
66425;SDS011;53237;46.158;14.604;2023-04-15T01:13:17;2.28;;;1.98;;
66425;SDS011;53237;46.158;14.604;2023-04-15T01:15:43;2.53;;;2.15;;
66425;SDS011;53237;46.158;14.604;2023-04-15T01:18:10;1.67;;;1.58;;
66425;SDS011;53237;46.158;14.604;2023-04-15T01:20:36;1.73;;;1.40;;
66425;SDS011;53237;46.158;14.604;2023-04-15T01:23:02;2.10;;;2.00;;
66425;SDS011;53237;46.158;14.604;2023-04-15T01:25:31;2.33;;;1.55;;
66425;SDS011;53237;46.158;14.604;2023-04-15T01:27:57;1.70;;;1.60;;
66425;SDS011;53237;46.158;14.604;2023-04-15T01:30:24;1.90;;;1.70;;
66425;SDS011;53237;46.158;14.604;2023-04-15T01:32:51;1.67;;;1.58;;
66425;SDS011;53237;46.158;14.604;2023-04-15T01:35:17;2.08;;;1.73;;
66425;SDS011;53237;46.158;14.604;2023-04-15T01:37:43;1.65;;;1.55;;
66425;SDS011;53237;46.158;14.604;2023-04-15T01:40:10;1.80;;;1.70;;
66425;SDS011;53237;46.158;14.604;2023-04-15T01:42:36;1.45;;;1.35;;
66425;SDS011;53237;46.158;14.604;2023-04-15T01:45:02;1.30;;;1.20;;
66425;SDS011;53237;46.158;14.604;2023-04-15T01:47:28;1.70;;;1.60;;
66425;SDS011;53237;46.158;14.604;2023-04-15T01:49:54;1.60;;;1.50;;
66425;SDS011;53237;46.158;14.604;2023-04-15T01:52:20;2.00;;;1.80;;
66425;SDS011;53237;46.158;14.604;2023-04-15T01:54:47;1.83;;;1.70;;
66425;SDS011;53237;46.158;14.604;2023-04-15T01:57:13;2.25;;;1.92;;
66425;SDS011;53237;46.158;14.604;2023-04-15T01:59:39;2.10;;;2.00;;
66425;SDS011;53237;46.158;14.604;2023-04-15T02:02:06;2.03;;;1.60;;
66425;SDS011;53237;46.158;14.604;2023-04-15T02:04:32;1.70;;;1.60;;
66425;SDS011;53237;46.158;14.604;2023-04-15T02:06:58;1.80;;;1.70;;
66425;SDS011;53237;46.158;14.604;2023-04-15T02:09:24;1.52;;;1.42;;
66425;SDS011;53237;46.158;14.604;2023-04-15T02:11:51;1.58;;;1.48;;
66425;SDS011;53237;46.158;14.604;2023-04-15T02:14:18;1.77;;;1.55;;
66425;SDS011;53237;46.158;14.604;2023-04-15T02:16:44;2.03;;;1.77;;
66425;SDS011;53237;46.158;14.604;2023-04-15T02:19:10;2.35;;;1.83;;
66425;SDS011;53237;46.158;14.604;2023-04-15T02:21:36;2.10;;;1.90;;
66425;SDS011;53237;46.158;14.604;2023-04-15T02:24:03;1.58;;;1.48;;
66425;SDS011;53237;46.158;14.604;2023-04-15T02:26:30;1.98;;;1.73;;
66425;SDS011;53237;46.158;14.604;2023-04-15T02:28:57;1.70;;;1.60;;
66425;SDS011;53237;46.158;14.604;2023-04-15T02:31:23;1.60;;;1.50;;
66425;SDS011;53237;46.158;14.604;2023-04-15T02:33:50;2.25;;;1.92;;
66425;SDS011;53237;46.158;14.604;2023-04-15T02:36:16;3.08;;;1.70;;
66425;SDS011;53237;46.158;14.604;2023-04-15T02:38:42;1.50;;;1.40;;
66425;SDS011;53237;46.158;14.604;2023-04-15T02:41:08;1.80;;;1.70;;
66425;SDS011;53237;46.158;14.604;2023-04-15T02:43:34;2.15;;;1.98;;
66425;SDS011;53237;46.158;14.604;2023-04-15T02:46:00;2.08;;;1.98;;
66425;SDS011;53237;46.158;14.604;2023-04-15T02:48:26;2.30;;;2.17;;
66425;SDS011;53237;46.158;14.604;2023-04-15T02:50:52;1.55;;;1.45;;
66425;SDS011;53237;46.158;14.604;2023-04-15T02:53:18;1.30;;;1.20;;
66425;SDS011;53237;46.158;14.604;2023-04-15T02:55:44;1.70;;;1.60;;
66425;SDS011;53237;46.158;14.604;2023-04-15T02:58:10;1.67;;;1.58;;
66425;SDS011;53237;46.158;14.604;2023-04-15T03:00:36;1.60;;;1.50;;
66425;SDS011;53237;46.158;14.604;2023-04-15T03:03:03;1.70;;;1.60;;
66425;SDS011;53237;46.158;14.604;2023-04-15T03:05:29;1.38;;;1.27;;
66425;SDS011;53237;46.158;14.604;2023-04-15T03:07:56;1.45;;;1.35;;
66425;SDS011;53237;46.158;14.604;2023-04-15T03:10:22;1.67;;;1.45;;
66425;SDS011;53237;46.158;14.604;2023-04-15T03:12:48;2.03;;;1.83;;
66425;SDS011;53237;46.158;14.604;2023-04-15T03:15:14;1.48;;;1.38;;
66425;SDS011;53237;46.158;14.604;2023-04-15T03:17:40;1.58;;;1.48;;
66425;SDS011;53237;46.158;14.604;2023-04-15T03:20:06;1.70;;;1.60;;
66425;SDS011;53237;46.158;14.604;2023-04-15T03:22:33;1.55;;;1.45;;
66425;SDS011;53237;46.158;14.604;2023-04-15T03:24:59;1.63;;;1.52;;
66425;SDS011;53237;46.158;14.604;2023-04-15T03:27:25;1.50;;;1.40;;
66425;SDS011;53237;46.158;14.604;2023-04-15T03:29:51;1.65;;;1.55;;
66425;SDS011;53237;46.158;14.604;2023-04-15T03:32:17;1.60;;;1.50;;
66425;SDS011;53237;46.158;14.604;2023-04-15T03:34:43;1.60;;;1.50;;
66425;SDS011;53237;46.158;14.604;2023-04-15T03:37:09;2.00;;;1.85;;
66425;SDS011;53237;46.158;14.604;2023-04-15T03:39:35;2.55;;;2.35;;
66425;SDS011;53237;46.158;14.604;2023-04-15T03:42:01;1.98;;;1.80;;
66425;SDS011;53237;46.158;14.604;2023-04-15T03:44:27;2.20;;;2.00;;
66425;SDS011;53237;46.158;14.604;2023-04-15T03:46:53;2.03;;;1.80;;
66425;SDS011;53237;46.158;14.604;2023-04-15T03:49:20;2.35;;;2.00;;
66425;SDS011;53237;46.158;14.604;2023-04-15T03:51:47;2.10;;;1.90;;
66425;SDS011;53237;46.158;14.604;2023-04-15T03:54:13;1.80;;;1.70;;
66425;SDS011;53237;46.158;14.604;2023-04-15T03:56:39;2.13;;;1.95;;
66425;SDS011;53237;46.158;14.604;2023-04-15T03:59:05;2.20;;;2.00;;
66425;SDS011;53237;46.158;14.604;2023-04-15T04:01:31;1.88;;;1.77;;
66425;SDS011;53237;46.158;14.604;2023-04-15T04:03:57;1.92;;;1.80;;
66425;SDS011;53237;46.158;14.604;2023-04-15T04:06:23;2.45;;;2.25;;
66425;SDS011;53237;46.158;14.604;2023-04-15T04:08:50;3.42;;;3.13;;
66425;SDS011;53237;46.158;14.604;2023-04-15T04:11:16;2.97;;;2.67;;
66425;SDS011;53237;46.158;14.604;2023-04-15T04:13:42;3.20;;;2.90;;
66425;SDS011;53237;46.158;14.604;2023-04-15T04:16:08;2.58;;;2.38;;
66425;SDS011;53237;46.158;14.604;2023-04-15T04:18:34;2.85;;;2.58;;
66425;SDS011;53237;46.158;14.604;2023-04-15T04:21:00;2.40;;;2.20;;
66425;SDS011;53237;46.158;14.604;2023-04-15T04:23:26;2.33;;;2.13;;
66425;SDS011;53237;46.158;14.604;2023-04-15T04:25:53;2.30;;;2.10;;
66425;SDS011;53237;46.158;14.604;2023-04-15T04:28:19;2.65;;;2.45;;
66425;SDS011;53237;46.158;14.604;2023-04-15T04:30:45;2.53;;;2.30;;
66425;SDS011;53237;46.158;14.604;2023-04-15T04:33:11;2.50;;;2.30;;
66425;SDS011;53237;46.158;14.604;2023-04-15T04:35:37;2.33;;;2.13;;
66425;SDS011;53237;46.158;14.604;2023-04-15T04:38:03;2.78;;;2.50;;
66425;SDS011;53237;46.158;14.604;2023-04-15T04:40:29;2.42;;;2.22;;
66425;SDS011;53237;46.158;14.604;2023-04-15T04:42:55;2.08;;;1.92;;
66425;SDS011;53237;46.158;14.604;2023-04-15T04:45:21;2.30;;;2.10;;
66425;SDS011;53237;46.158;14.604;2023-04-15T04:47:47;2.63;;;2.42;;
66425;SDS011;53237;46.158;14.604;2023-04-15T04:50:13;2.45;;;2.25;;
66425;SDS011;53237;46.158;14.604;2023-04-15T04:52:39;3.03;;;2.75;;
66425;SDS011;53237;46.158;14.604;2023-04-15T04:55:05;2.50;;;2.30;;
66425;SDS011;53237;46.158;14.604;2023-04-15T04:57:32;3.00;;;2.70;;
66425;SDS011;53237;46.158;14.604;2023-04-15T05:00:00;2.80;;;2.58;;
66425;SDS011;53237;46.158;14.604;2023-04-15T05:02:27;3.17;;;2.88;;
66425;SDS011;53237;46.158;14.604;2023-04-15T05:04:53;3.05;;;2.75;;
66425;SDS011;53237;46.158;14.604;2023-04-15T05:07:19;3.05;;;2.72;;
66425;SDS011;53237;46.158;14.604;2023-04-15T05:09:45;3.40;;;3.10;;
66425;SDS011;53237;46.158;14.604;2023-04-15T05:12:11;3.05;;;2.75;;
66425;SDS011;53237;46.158;14.604;2023-04-15T05:14:42;2.60;;;2.40;;
66425;SDS011;53237;46.158;14.604;2023-04-15T05:17:08;3.17;;;2.88;;
66425;SDS011;53237;46.158;14.604;2023-04-15T05:19:35;2.72;;;2.53;;
66425;SDS011;53237;46.158;14.604;2023-04-15T05:22:01;2.90;;;2.60;;
66425;SDS011;53237;46.158;14.604;2023-04-15T05:24:27;3.75;;;2.45;;
66425;SDS011;53237;46.158;14.604;2023-04-15T05:26:53;2.55;;;2.35;;
66425;SDS011;53237;46.158;14.604;2023-04-15T05:29:20;2.90;;;2.60;;
66425;SDS011;53237;46.158;14.604;2023-04-15T05:31:46;3.47;;;2.35;;
66425;SDS011;53237;46.158;14.604;2023-04-15T05:34:12;2.95;;;2.47;;
66425;SDS011;53237;46.158;14.604;2023-04-15T05:36:39;2.50;;;2.30;;
66425;SDS011;53237;46.158;14.604;2023-04-15T05:39:05;2.60;;;2.40;;
66425;SDS011;53237;46.158;14.604;2023-04-15T05:41:31;2.00;;;1.90;;
66425;SDS011;53237;46.158;14.604;2023-04-15T05:43:58;2.85;;;2.40;;
66425;SDS011;53237;46.158;14.604;2023-04-15T05:46:24;2.38;;;2.17;;
66425;SDS011;53237;46.158;14.604;2023-04-15T05:48:51;2.40;;;2.20;;
66425;SDS011;53237;46.158;14.604;2023-04-15T05:51:17;2.58;;;2.13;;
66425;SDS011;53237;46.158;14.604;2023-04-15T05:53:43;2.60;;;2.40;;
66425;SDS011;53237;46.158;14.604;2023-04-15T05:56:10;2.90;;;2.60;;
66425;SDS011;53237;46.158;14.604;2023-04-15T05:58:36;3.75;;;3.00;;
66425;SDS011;53237;46.158;14.604;2023-04-15T06:01:02;3.88;;;3.10;;
66425;SDS011;53237;46.158;14.604;2023-04-15T06:03:28;4.15;;;3.33;;
66425;SDS011;53237;46.158;14.604;2023-04-15T06:05:54;3.70;;;3.13;;
66425;SDS011;53237;46.158;14.604;2023-04-15T06:08:20;4.47;;;3.35;;
66425;SDS011;53237;46.158;14.604;2023-04-15T06:10:46;6.45;;;3.90;;
66425;SDS011;53237;46.158;14.604;2023-04-15T06:13:12;6.72;;;4.57;;
66425;SDS011;53237;46.158;14.604;2023-04-15T06:15:38;4.88;;;3.95;;
66425;SDS011;53237;46.158;14.604;2023-04-15T06:18:05;4.70;;;4.22;;
66425;SDS011;53237;46.158;14.604;2023-04-15T06:20:31;6.15;;;5.60;;
66425;SDS011;53237;46.158;14.604;2023-04-15T06:22:57;4.53;;;4.13;;
66425;SDS011;53237;46.158;14.604;2023-04-15T06:25:23;5.28;;;4.72;;
66425;SDS011;53237;46.158;14.604;2023-04-15T06:27:49;5.53;;;5.03;;
66425;SDS011;53237;46.158;14.604;2023-04-15T06:30:15;5.90;;;5.40;;
66425;SDS011;53237;46.158;14.604;2023-04-15T06:32:41;4.57;;;4.18;;
66425;SDS011;53237;46.158;14.604;2023-04-15T06:35:07;5.43;;;4.93;;
66425;SDS011;53237;46.158;14.604;2023-04-15T06:37:33;4.60;;;4.20;;
66425;SDS011;53237;46.158;14.604;2023-04-15T06:40:00;4.88;;;4.47;;
66425;SDS011;53237;46.158;14.604;2023-04-15T06:42:26;5.05;;;4.55;;
66425;SDS011;53237;46.158;14.604;2023-04-15T06:44:52;5.38;;;4.88;;
66425;SDS011;53237;46.158;14.604;2023-04-15T06:47:18;5.55;;;4.95;;
66425;SDS011;53237;46.158;14.604;2023-04-15T06:49:44;4.80;;;4.40;;
66425;SDS011;53237;46.158;14.604;2023-04-15T06:52:10;5.63;;;5.13;;
66425;SDS011;53237;46.158;14.604;2023-04-15T06:54:36;4.85;;;4.45;;
66425;SDS011;53237;46.158;14.604;2023-04-15T06:57:02;5.05;;;4.60;;
66425;SDS011;53237;46.158;14.604;2023-04-15T06:59:28;4.82;;;4.43;;
66425;SDS011;53237;46.158;14.604;2023-04-15T07:01:55;7.55;;;6.85;;
66425;SDS011;53237;46.158;14.604;2023-04-15T07:04:21;6.72;;;6.13;;
66425;SDS011;53237;46.158;14.604;2023-04-15T07:06:47;5.47;;;4.97;;
66425;SDS011;53237;46.158;14.604;2023-04-15T07:09:13;4.60;;;4.20;;
66425;SDS011;53237;46.158;14.604;2023-04-15T07:11:39;4.72;;;4.32;;
66425;SDS011;53237;46.158;14.604;2023-04-15T07:14:05;4.88;;;4.47;;
66425;SDS011;53237;46.158;14.604;2023-04-15T07:16:31;4.55;;;4.15;;
66425;SDS011;53237;46.158;14.604;2023-04-15T07:18:57;5.53;;;5.03;;
66425;SDS011;53237;46.158;14.604;2023-04-15T07:21:23;4.40;;;4.10;;
66425;SDS011;53237;46.158;14.604;2023-04-15T07:23:49;4.50;;;4.10;;
66425;SDS011;53237;46.158;14.604;2023-04-15T07:26:16;4.20;;;3.80;;
66425;SDS011;53237;46.158;14.604;2023-04-15T07:28:41;5.35;;;4.90;;
66425;SDS011;53237;46.158;14.604;2023-04-15T07:31:08;5.22;;;4.72;;
66425;SDS011;53237;46.158;14.604;2023-04-15T07:33:34;3.97;;;3.67;;
66425;SDS011;53237;46.158;14.604;2023-04-15T07:36:01;3.40;;;3.10;;
66425;SDS011;53237;46.158;14.604;2023-04-15T07:38:27;3.55;;;3.25;;
66425;SDS011;53237;46.158;14.604;2023-04-15T07:40:53;3.15;;;2.95;;
66425;SDS011;53237;46.158;14.604;2023-04-15T07:43:19;3.72;;;3.42;;
66425;SDS011;53237;46.158;14.604;2023-04-15T07:45:46;2.90;;;2.70;;
66425;SDS011;53237;46.158;14.604;2023-04-15T07:48:11;3.33;;;3.03;;
66425;SDS011;53237;46.158;14.604;2023-04-15T07:50:38;2.80;;;2.60;;
66425;SDS011;53237;46.158;14.604;2023-04-15T07:53:04;2.63;;;2.40;;
66425;SDS011;53237;46.158;14.604;2023-04-15T07:55:31;2.80;;;2.60;;
66425;SDS011;53237;46.158;14.604;2023-04-15T07:57:57;3.15;;;2.85;;
66425;SDS011;53237;46.158;14.604;2023-04-15T08:00:23;2.30;;;2.10;;
66425;SDS011;53237;46.158;14.604;2023-04-15T08:02:49;2.47;;;2.25;;
66425;SDS011;53237;46.158;14.604;2023-04-15T08:05:17;3.05;;;2.30;;
66425;SDS011;53237;46.158;14.604;2023-04-15T08:07:43;2.15;;;2.05;;
66425;SDS011;53237;46.158;14.604;2023-04-15T08:10:10;3.80;;;3.40;;
66425;SDS011;53237;46.158;14.604;2023-04-15T08:12:36;4.70;;;3.03;;
66425;SDS011;53237;46.158;14.604;2023-04-15T08:15:02;1.95;;;1.85;;
66425;SDS011;53237;46.158;14.604;2023-04-15T08:17:28;2.03;;;1.85;;
66425;SDS011;53237;46.158;14.604;2023-04-15T08:19:54;1.70;;;1.60;;
66425;SDS011;53237;46.158;14.604;2023-04-15T08:22:21;1.85;;;1.75;;
66425;SDS011;53237;46.158;14.604;2023-04-15T08:24:47;1.80;;;1.70;;
66425;SDS011;53237;46.158;14.604;2023-04-15T08:27:13;2.50;;;2.30;;
66425;SDS011;53237;46.158;14.604;2023-04-15T08:29:39;2.58;;;2.22;;
66425;SDS011;53237;46.158;14.604;2023-04-15T08:32:05;3.30;;;1.80;;
66425;SDS011;53237;46.158;14.604;2023-04-15T08:34:31;3.10;;;2.20;;
66425;SDS011;53237;46.158;14.604;2023-04-15T08:36:58;2.35;;;2.15;;
66425;SDS011;53237;46.158;14.604;2023-04-15T08:39:24;2.83;;;2.30;;
66425;SDS011;53237;46.158;14.604;2023-04-15T08:41:55;1.70;;;1.60;;
66425;SDS011;53237;46.158;14.604;2023-04-15T08:44:23;1.73;;;1.63;;
66425;SDS011;53237;46.158;14.604;2023-04-15T08:46:50;2.20;;;2.00;;
66425;SDS011;53237;46.158;14.604;2023-04-15T08:49:16;1.80;;;1.70;;
66425;SDS011;53237;46.158;14.604;2023-04-15T08:51:43;1.65;;;1.48;;
66425;SDS011;53237;46.158;14.604;2023-04-15T08:54:10;2.00;;;1.80;;
66425;SDS011;53237;46.158;14.604;2023-04-15T08:56:37;2.40;;;1.70;;
66425;SDS011;53237;46.158;14.604;2023-04-15T08:59:03;1.70;;;1.60;;
66425;SDS011;53237;46.158;14.604;2023-04-15T09:01:30;1.60;;;1.45;;
66425;SDS011;53237;46.158;14.604;2023-04-15T09:03:56;1.75;;;1.60;;
66425;SDS011;53237;46.158;14.604;2023-04-15T09:06:23;2.17;;;1.60;;
66425;SDS011;53237;46.158;14.604;2023-04-15T09:08:50;2.97;;;2.25;;
66425;SDS011;53237;46.158;14.604;2023-04-15T09:11:17;1.60;;;1.50;;
66425;SDS011;53237;46.158;14.604;2023-04-15T09:13:43;14.15;;;12.98;;
66425;SDS011;53237;46.158;14.604;2023-04-15T09:16:10;2.05;;;1.88;;
66425;SDS011;53237;46.158;14.604;2023-04-15T09:18:37;2.05;;;1.80;;
66425;SDS011;53237;46.158;14.604;2023-04-15T09:21:12;2.67;;;1.70;;
66425;SDS011;53237;46.158;14.604;2023-04-15T09:23:40;2.35;;;1.95;;
66425;SDS011;53237;46.158;14.604;2023-04-15T09:26:06;2.53;;;1.90;;
66425;SDS011;53237;46.158;14.604;2023-04-15T09:28:32;2.25;;;2.05;;
66425;SDS011;53237;46.158;14.604;2023-04-15T09:31:05;2.83;;;2.50;;
66425;SDS011;53237;46.158;14.604;2023-04-15T09:33:31;2.10;;;1.90;;
66425;SDS011;53237;46.158;14.604;2023-04-15T09:36:01;2.03;;;1.92;;
66425;SDS011;53237;46.158;14.604;2023-04-15T09:38:28;1.95;;;1.85;;
66425;SDS011;53237;46.158;14.604;2023-04-15T09:40:55;2.50;;;2.00;;
66425;SDS011;53237;46.158;14.604;2023-04-15T09:43:21;1.65;;;1.55;;
66425;SDS011;53237;46.158;14.604;2023-04-15T09:45:53;2.38;;;2.17;;
66425;SDS011;53237;46.158;14.604;2023-04-15T09:50:45;1.98;;;1.88;;
66425;SDS011;53237;46.158;14.604;2023-04-15T09:53:16;2.83;;;2.63;;
66425;SDS011;53237;46.158;14.604;2023-04-15T09:58:22;2.80;;;2.00;;
66425;SDS011;53237;46.158;14.604;2023-04-15T10:00:49;2.10;;;1.90;;
66425;SDS011;53237;46.158;14.604;2023-04-15T10:03:25;1.60;;;1.50;;
66425;SDS011;53237;46.158;14.604;2023-04-15T10:05:51;2.42;;;1.92;;
66425;SDS011;53237;46.158;14.604;2023-04-15T10:08:18;3.28;;;2.03;;
66425;SDS011;53237;46.158;14.604;2023-04-15T10:10:46;2.47;;;2.28;;
66425;SDS011;53237;46.158;14.604;2023-04-15T10:13:13;2.63;;;2.08;;
66425;SDS011;53237;46.158;14.604;2023-04-15T10:15:40;2.20;;;1.80;;
66425;SDS011;53237;46.158;14.604;2023-04-15T10:18:09;2.25;;;1.70;;
66425;SDS011;53237;46.158;14.604;2023-04-15T10:20:36;1.92;;;1.38;;
66425;SDS011;53237;46.158;14.604;2023-04-15T10:23:02;1.58;;;1.48;;
66425;SDS011;53237;46.158;14.604;2023-04-15T10:25:28;2.72;;;1.60;;
66425;SDS011;53237;46.158;14.604;2023-04-15T10:27:55;1.80;;;1.50;;
66425;SDS011;53237;46.158;14.604;2023-04-15T10:30:22;1.80;;;1.55;;
66425;SDS011;53237;46.158;14.604;2023-04-15T10:32:48;1.60;;;1.45;;
66425;SDS011;53237;46.158;14.604;2023-04-15T10:35:14;1.90;;;1.27;;
66425;SDS011;53237;46.158;14.604;2023-04-15T10:37:41;2.28;;;1.80;;
66425;SDS011;53237;46.158;14.604;2023-04-15T10:40:27;3.15;;;2.60;;
66425;SDS011;53237;46.158;14.604;2023-04-15T10:42:56;2.70;;;1.80;;
66425;SDS011;53237;46.158;14.604;2023-04-15T10:45:24;6.35;;;5.32;;
66425;SDS011;53237;46.158;14.604;2023-04-15T10:47:52;4.20;;;2.85;;
66425;SDS011;53237;46.158;14.604;2023-04-15T10:50:19;2.05;;;1.60;;
66425;SDS011;53237;46.158;14.604;2023-04-15T10:52:49;3.38;;;1.70;;
66425;SDS011;53237;46.158;14.604;2023-04-15T10:55:19;1.92;;;1.50;;
66425;SDS011;53237;46.158;14.604;2023-04-15T10:57:45;3.17;;;1.83;;
66425;SDS011;53237;46.158;14.604;2023-04-15T11:00:12;3.38;;;1.50;;
66425;SDS011;53237;46.158;14.604;2023-04-15T11:02:39;2.22;;;1.10;;
66425;SDS011;53237;46.158;14.604;2023-04-15T11:05:06;3.15;;;1.80;;
66425;SDS011;53237;46.158;14.604;2023-04-15T11:07:32;2.20;;;1.50;;
66425;SDS011;53237;46.158;14.604;2023-04-15T11:09:58;1.75;;;1.40;;
66425;SDS011;53237;46.158;14.604;2023-04-15T11:12:35;2.05;;;1.50;;
66425;SDS011;53237;46.158;14.604;2023-04-15T11:17:46;1.48;;;1.30;;
66425;SDS011;53237;46.158;14.604;2023-04-15T11:20:15;1.92;;;1.73;;
66425;SDS011;53237;46.158;14.604;2023-04-15T11:22:51;1.60;;;1.50;;
66425;SDS011;53237;46.158;14.604;2023-04-15T11:25:24;1.50;;;1.25;;
66425;SDS011;53237;46.158;14.604;2023-04-15T11:27:51;2.55;;;1.30;;
66425;SDS011;53237;46.158;14.604;2023-04-15T11:30:18;1.90;;;1.52;;
66425;SDS011;53237;46.158;14.604;2023-04-15T11:32:48;1.73;;;1.40;;
66425;SDS011;53237;46.158;14.604;2023-04-15T11:35:17;1.63;;;1.25;;
66425;SDS011;53237;46.158;14.604;2023-04-15T11:37:44;1.45;;;1.30;;
66425;SDS011;53237;46.158;14.604;2023-04-15T11:40:10;1.70;;;1.48;;
66425;SDS011;53237;46.158;14.604;2023-04-15T11:42:37;4.88;;;3.65;;
66425;SDS011;53237;46.158;14.604;2023-04-15T11:45:10;1.55;;;1.45;;
66425;SDS011;53237;46.158;14.604;2023-04-15T11:47:37;1.85;;;1.75;;
66425;SDS011;53237;46.158;14.604;2023-04-15T11:50:19;1.50;;;1.40;;
66425;SDS011;53237;46.158;14.604;2023-04-15T11:52:53;1.23;;;1.10;;
66425;SDS011;53237;46.158;14.604;2023-04-15T11:55:19;1.20;;;1.10;;
66425;SDS011;53237;46.158;14.604;2023-04-15T11:57:45;1.65;;;0.90;;
66425;SDS011;53237;46.158;14.604;2023-04-15T12:00:11;1.42;;;0.70;;
66425;SDS011;53237;46.158;14.604;2023-04-15T12:02:38;1.73;;;1.00;;
66425;SDS011;53237;46.158;14.604;2023-04-15T12:05:04;8.32;;;3.40;;
66425;SDS011;53237;46.158;14.604;2023-04-15T12:07:31;3.45;;;1.38;;
66425;SDS011;53237;46.158;14.604;2023-04-15T12:09:57;1.95;;;1.63;;
66425;SDS011;53237;46.158;14.604;2023-04-15T12:12:27;2.33;;;1.30;;
66425;SDS011;53237;46.158;14.604;2023-04-15T12:14:55;3.60;;;1.50;;
66425;SDS011;53237;46.158;14.604;2023-04-15T12:17:21;5.47;;;1.52;;
66425;SDS011;53237;46.158;14.604;2023-04-15T12:19:54;5.38;;;3.63;;
66425;SDS011;53237;46.158;14.604;2023-04-15T12:22:21;5.97;;;3.10;;
66425;SDS011;53237;46.158;14.604;2023-04-15T12:24:47;3.63;;;1.90;;
66425;SDS011;53237;46.158;14.604;2023-04-15T12:27:24;2.10;;;1.90;;
66425;SDS011;53237;46.158;14.604;2023-04-15T12:29:56;2.30;;;2.10;;
66425;SDS011;53237;46.158;14.604;2023-04-15T12:32:28;2.70;;;1.90;;
66425;SDS011;53237;46.158;14.604;2023-04-15T12:34:54;2.20;;;2.00;;
66425;SDS011;53237;46.158;14.604;2023-04-15T12:37:20;2.55;;;2.22;;
66425;SDS011;53237;46.158;14.604;2023-04-15T12:39:46;3.25;;;2.33;;
66425;SDS011;53237;46.158;14.604;2023-04-15T12:42:13;1.98;;;1.88;;
66425;SDS011;53237;46.158;14.604;2023-04-15T12:44:39;2.22;;;1.60;;
66425;SDS011;53237;46.158;14.604;2023-04-15T12:47:06;1.98;;;1.60;;
66425;SDS011;53237;46.158;14.604;2023-04-15T12:49:32;2.83;;;2.03;;
66425;SDS011;53237;46.158;14.604;2023-04-15T12:51:59;2.67;;;1.83;;
66425;SDS011;53237;46.158;14.604;2023-04-15T12:54:26;3.08;;;1.90;;
66425;SDS011;53237;46.158;14.604;2023-04-15T12:56:52;2.28;;;2.08;;
66425;SDS011;53237;46.158;14.604;2023-04-15T12:59:19;1.80;;;1.65;;
66425;SDS011;53237;46.158;14.604;2023-04-15T13:01:45;2.38;;;2.03;;
66425;SDS011;53237;46.158;14.604;2023-04-15T13:04:12;1.67;;;1.50;;
66425;SDS011;53237;46.158;14.604;2023-04-15T13:06:38;2.35;;;2.03;;
66425;SDS011;53237;46.158;14.604;2023-04-15T13:09:04;3.33;;;2.00;;
66425;SDS011;53237;46.158;14.604;2023-04-15T13:11:30;2.22;;;1.70;;
66425;SDS011;53237;46.158;14.604;2023-04-15T13:13:58;1.85;;;1.70;;
66425;SDS011;53237;46.158;14.604;2023-04-15T13:16:24;2.92;;;2.40;;
66425;SDS011;53237;46.158;14.604;2023-04-15T13:18:50;2.10;;;1.90;;
66425;SDS011;53237;46.158;14.604;2023-04-15T13:21:17;1.88;;;1.70;;
66425;SDS011;53237;46.158;14.604;2023-04-15T13:23:43;2.22;;;1.80;;
66425;SDS011;53237;46.158;14.604;2023-04-15T13:26:09;2.28;;;1.60;;
66425;SDS011;53237;46.158;14.604;2023-04-15T13:28:35;1.40;;;1.30;;
66425;SDS011;53237;46.158;14.604;2023-04-15T13:31:02;1.42;;;1.23;;
66425;SDS011;53237;46.158;14.604;2023-04-15T13:33:28;2.13;;;1.55;;
66425;SDS011;53237;46.158;14.604;2023-04-15T13:35:54;1.90;;;1.58;;
66425;SDS011;53237;46.158;14.604;2023-04-15T13:38:20;3.67;;;1.75;;
66425;SDS011;53237;46.158;14.604;2023-04-15T13:40:46;1.63;;;1.40;;
66425;SDS011;53237;46.158;14.604;2023-04-15T13:43:12;2.13;;;1.42;;
66425;SDS011;53237;46.158;14.604;2023-04-15T13:45:38;1.85;;;1.30;;
66425;SDS011;53237;46.158;14.604;2023-04-15T13:48:05;1.55;;;1.30;;
66425;SDS011;53237;46.158;14.604;2023-04-15T13:50:31;1.67;;;1.58;;
66425;SDS011;53237;46.158;14.604;2023-04-15T13:52:57;1.42;;;1.05;;
66425;SDS011;53237;46.158;14.604;2023-04-15T13:55:23;1.67;;;1.20;;
66425;SDS011;53237;46.158;14.604;2023-04-15T13:57:49;2.00;;;1.17;;
66425;SDS011;53237;46.158;14.604;2023-04-15T14:00:15;1.30;;;1.20;;
66425;SDS011;53237;46.158;14.604;2023-04-15T14:02:41;1.25;;;1.15;;
66425;SDS011;53237;46.158;14.604;2023-04-15T14:05:07;1.13;;;1.00;;
66425;SDS011;53237;46.158;14.604;2023-04-15T14:07:34;1.40;;;1.30;;
66425;SDS011;53237;46.158;14.604;2023-04-15T14:10:00;1.40;;;1.10;;
66425;SDS011;53237;46.158;14.604;2023-04-15T14:12:27;4.22;;;2.85;;
66425;SDS011;53237;46.158;14.604;2023-04-15T14:14:53;2.67;;;1.90;;
66425;SDS011;53237;46.158;14.604;2023-04-15T14:17:19;3.08;;;2.75;;
66425;SDS011;53237;46.158;14.604;2023-04-15T14:19:46;3.50;;;2.90;;
66425;SDS011;53237;46.158;14.604;2023-04-15T14:22:12;3.10;;;1.67;;
66425;SDS011;53237;46.158;14.604;2023-04-15T14:24:38;4.30;;;3.40;;
66425;SDS011;53237;46.158;14.604;2023-04-15T14:27:04;5.93;;;3.63;;
66425;SDS011;53237;46.158;14.604;2023-04-15T14:29:30;2.55;;;2.10;;
66425;SDS011;53237;46.158;14.604;2023-04-15T14:31:56;2.50;;;1.20;;
66425;SDS011;53237;46.158;14.604;2023-04-15T14:34:23;2.13;;;1.50;;
66425;SDS011;53237;46.158;14.604;2023-04-15T14:36:52;1.92;;;1.70;;
66425;SDS011;53237;46.158;14.604;2023-04-15T14:39:18;2.72;;;2.53;;